N80EM EGLF-EKVG
Flight info
| Callsign | N80EM |
|---|---|
| Flight time | N/A |
| Altitude | 24000 |
| Route | ODH DCT GOGSI DCT WOD DCT BENSU M605 DTY Y53 SAPCO N57 TNT/N0479F230 M868 TIPIL/N0480F240 N57 POL N601 TLA/N0479F250 N864 IBOLU/N0494F430 DCT SOXON DCT NALAN/M086F430 DCT PEVAB DCT VGC07 DCT MAGNI DCT MY |
| Aircraft | C750/M-SBDE3FGHRWXY/S |
Departure
| Time | 2026-04-26 13:11 |
|---|---|
| Airport | Farnborough Airport (EGLF) |
Arrival
| Time | N/A |
|---|---|
| Airport | Vágar Airport (EKVG) |
| Time | Latitude | Longitude | Altitude | Speed | Heading |
|---|---|---|---|---|---|
| 2026-04-26 12:51 | 51.28106 | -0.77716 | 217 ft | 0 kts | 302° |
| 2026-04-26 13:06 | 51.28110 | -0.77727 | 217 ft | 4 kts | 302° |
| 2026-04-26 13:06 | 51.28120 | -0.77774 | 219 ft | 7 kts | 250° |
| 2026-04-26 13:07 | 51.28049 | -0.77852 | 219 ft | 15 kts | 206° |
| 2026-04-26 13:07 | 51.27937 | -0.77896 | 220 ft | 18 kts | 203° |
| 2026-04-26 13:07 | 51.27844 | -0.78002 | 220 ft | 16 kts | 215° |
| 2026-04-26 13:07 | 51.27761 | -0.78097 | 220 ft | 14 kts | 216° |
| 2026-04-26 13:08 | 51.27681 | -0.78188 | 222 ft | 13 kts | 216° |
| 2026-04-26 13:08 | 51.27635 | -0.78278 | 222 ft | 12 kts | 220° |
| 2026-04-26 13:08 | 51.27565 | -0.78376 | 220 ft | 19 kts | 220° |
| 2026-04-26 13:08 | 51.27430 | -0.78561 | 220 ft | 28 kts | 221° |
| 2026-04-26 13:09 | 51.27321 | -0.78715 | 224 ft | 9 kts | 223° |
| 2026-04-26 13:09 | 51.27279 | -0.78706 | 223 ft | 6 kts | 149° |
| 2026-04-26 13:09 | 51.27247 | -0.78675 | 223 ft | 4 kts | 149° |
| 2026-04-26 13:09 | 51.27248 | -0.78635 | 224 ft | 0 kts | 61° |
| 2026-04-26 13:10 | 51.27280 | -0.78539 | 223 ft | 45 kts | 62° |
| 2026-04-26 13:10 | 51.27604 | -0.77563 | 239 ft | 139 kts | 63° |
| 2026-04-26 13:10 | 51.28042 | -0.76287 | 740 ft | 138 kts | 62° |
| 2026-04-26 13:11 | 51.28527 | -0.74869 | 1440 ft | 143 kts | 66° |
| 2026-04-26 13:11 | 51.29007 | -0.73510 | 2256 ft | 141 kts | 64° |
| 2026-04-26 13:11 | 51.29523 | -0.72117 | 2873 ft | 157 kts | 63° |
| 2026-04-26 13:11 | 51.30113 | -0.70452 | 3274 ft | 187 kts | 63° |
| 2026-04-26 13:12 | 51.30792 | -0.68505 | 3809 ft | 213 kts | 64° |
| 2026-04-26 13:12 | 51.31406 | -0.67195 | 4120 ft | 234 kts | 43° |
| 2026-04-26 13:12 | 51.32939 | -0.66314 | 5154 ft | 237 kts | 4° |
| 2026-04-26 13:12 | 51.34532 | -0.66895 | 6119 ft | 241 kts | 331° |
| 2026-04-26 13:13 | 51.35911 | -0.68387 | 7118 ft | 239 kts | 324° |
| 2026-04-26 13:13 | 51.37290 | -0.69916 | 8077 ft | 244 kts | 325° |
| 2026-04-26 13:13 | 51.38715 | -0.71417 | 9093 ft | 246 kts | 326° |
| 2026-04-26 13:13 | 51.40155 | -0.72935 | 10066 ft | 250 kts | 324° |
| 2026-04-26 13:14 | 51.41635 | -0.74513 | 10899 ft | 254 kts | 324° |
| 2026-04-26 13:14 | 51.43093 | -0.76071 | 11713 ft | 257 kts | 324° |
| 2026-04-26 13:14 | 51.44589 | -0.77664 | 12535 ft | 260 kts | 324° |
| 2026-04-26 13:14 | 51.46103 | -0.79277 | 13367 ft | 263 kts | 324° |
| 2026-04-26 13:15 | 51.47633 | -0.80909 | 14191 ft | 266 kts | 324° |
| 2026-04-26 13:15 | 51.49181 | -0.82565 | 14920 ft | 269 kts | 324° |
| 2026-04-26 13:15 | 51.50752 | -0.84245 | 15633 ft | 273 kts | 324° |
| 2026-04-26 13:15 | 51.52341 | -0.85945 | 16369 ft | 276 kts | 324° |
| 2026-04-26 13:16 | 51.53967 | -0.87688 | 16894 ft | 291 kts | 323° |
| 2026-04-26 13:16 | 51.55725 | -0.89579 | 17023 ft | 317 kts | 324° |
| 2026-04-26 13:16 | 51.57582 | -0.91471 | 17678 ft | 323 kts | 329° |
| 2026-04-26 13:16 | 51.59751 | -0.92527 | 18421 ft | 329 kts | 347° |
| 2026-04-26 13:17 | 51.64294 | -0.93933 | 19829 ft | 336 kts | 346° |
| 2026-04-26 13:17 | 51.66590 | -0.94687 | 20540 ft | 339 kts | 346° |
| 2026-04-26 13:18 | 51.71269 | -0.96189 | 21964 ft | 346 kts | 346° |
| 2026-04-26 13:18 | 51.73647 | -0.96950 | 22694 ft | 350 kts | 346° |
| 2026-04-26 13:18 | 51.78518 | -0.98525 | 23917 ft | 364 kts | 346° |
| 2026-04-26 13:19 | 51.81074 | -0.99353 | 23942 ft | 386 kts | 346° |
| 2026-04-26 13:19 | 51.83782 | -1.00228 | 23961 ft | 407 kts | 346° |
| 2026-04-26 13:19 | 51.86621 | -1.01144 | 23987 ft | 425 kts | 346° |
| 2026-04-26 13:19 | 51.89546 | -1.02088 | 24423 ft | 429 kts | 346° |
| 2026-04-26 13:20 | 51.92480 | -1.03037 | 24991 ft | 431 kts | 346° |
| 2026-04-26 13:20 | 51.95432 | -1.03999 | 25462 ft | 435 kts | 346° |
| 2026-04-26 13:20 | 51.98408 | -1.04968 | 25970 ft | 437 kts | 346° |
| 2026-04-26 13:20 | 52.01402 | -1.05942 | 26471 ft | 440 kts | 346° |
| 2026-04-26 13:21 | 52.04413 | -1.06924 | 26989 ft | 443 kts | 346° |
| 2026-04-26 13:21 | 52.07444 | -1.07914 | 27510 ft | 445 kts | 346° |
| 2026-04-26 13:21 | 52.10492 | -1.08913 | 28010 ft | 448 kts | 346° |
| 2026-04-26 13:21 | 52.13557 | -1.09915 | 28497 ft | 451 kts | 346° |
| 2026-04-26 13:22 | 52.16647 | -1.10939 | 29002 ft | 454 kts | 345° |
| 2026-04-26 13:22 | 52.19655 | -1.12467 | 29447 ft | 453 kts | 335° |
| 2026-04-26 13:22 | 52.22570 | -1.14447 | 29943 ft | 455 kts | 334° |
| 2026-04-26 13:22 | 52.25509 | -1.16420 | 30427 ft | 458 kts | 334° |
| 2026-04-26 13:23 | 52.28468 | -1.18384 | 30863 ft | 460 kts | 334° |
| 2026-04-26 13:23 | 52.31424 | -1.20368 | 31444 ft | 458 kts | 334° |
| 2026-04-26 13:23 | 52.34361 | -1.22361 | 32093 ft | 455 kts | 334° |
| 2026-04-26 13:23 | 52.37278 | -1.24337 | 32704 ft | 453 kts | 334° |
| 2026-04-26 13:24 | 52.40191 | -1.26300 | 33314 ft | 451 kts | 334° |
| 2026-04-26 13:24 | 52.43090 | -1.28259 | 33796 ft | 450 kts | 334° |
| 2026-04-26 13:24 | 52.45977 | -1.30218 | 34418 ft | 448 kts | 334° |
| 2026-04-26 13:24 | 52.48852 | -1.32171 | 34943 ft | 446 kts | 334° |
| 2026-04-26 13:25 | 52.51718 | -1.34119 | 35452 ft | 446 kts | 334° |
| 2026-04-26 13:25 | 52.54580 | -1.36035 | 36002 ft | 444 kts | 335° |
| 2026-04-26 13:25 | 52.57476 | -1.37774 | 36498 ft | 443 kts | 336° |
| 2026-04-26 13:25 | 52.60372 | -1.39505 | 37001 ft | 442 kts | 336° |
| 2026-04-26 13:26 | 52.63258 | -1.41253 | 37507 ft | 442 kts | 336° |
| 2026-04-26 13:26 | 52.66137 | -1.43005 | 38012 ft | 441 kts | 336° |
| 2026-04-26 13:26 | 52.69016 | -1.44748 | 38526 ft | 440 kts | 336° |
| 2026-04-26 13:26 | 52.71890 | -1.46486 | 39017 ft | 440 kts | 336° |
| 2026-04-26 13:27 | 52.74756 | -1.48226 | 39439 ft | 440 kts | 336° |
| 2026-04-26 13:27 | 52.77630 | -1.49979 | 39815 ft | 440 kts | 336° |
| 2026-04-26 13:27 | 52.80507 | -1.51733 | 40172 ft | 441 kts | 336° |
| 2026-04-26 13:27 | 52.83388 | -1.53487 | 40522 ft | 442 kts | 336° |
| 2026-04-26 13:28 | 52.86275 | -1.55250 | 40893 ft | 443 kts | 336° |
| 2026-04-26 13:28 | 52.89126 | -1.56996 | 41263 ft | 443 kts | 336° |
| 2026-04-26 13:28 | 52.92018 | -1.58768 | 41642 ft | 443 kts | 336° |
| 2026-04-26 13:28 | 52.94914 | -1.60544 | 42018 ft | 444 kts | 336° |
| 2026-04-26 13:29 | 52.97814 | -1.62325 | 42395 ft | 444 kts | 336° |
| 2026-04-26 13:29 | 52.99773 | -1.63530 | 42661 ft | 445 kts | 336° |
| 2026-04-26 13:29 | 53.03618 | -1.65899 | 43153 ft | 445 kts | 336° |
| 2026-04-26 13:29 | 53.06522 | -1.67691 | 43525 ft | 446 kts | 336° |
| 2026-04-26 13:30 | 53.09434 | -1.69491 | 43880 ft | 446 kts | 337° |
| 2026-04-26 13:30 | 53.12347 | -1.71295 | 44238 ft | 447 kts | 337° |
| 2026-04-26 13:30 | 53.15260 | -1.73101 | 44598 ft | 447 kts | 337° |
| 2026-04-26 13:30 | 53.18178 | -1.74912 | 44944 ft | 448 kts | 337° |
| 2026-04-26 13:31 | 53.21096 | -1.76727 | 45247 ft | 448 kts | 337° |
| 2026-04-26 13:31 | 53.24018 | -1.78547 | 45575 ft | 448 kts | 337° |
| 2026-04-26 13:31 | 53.26935 | -1.80367 | 45876 ft | 448 kts | 337° |
| 2026-04-26 13:31 | 53.29855 | -1.82190 | 46166 ft | 448 kts | 337° |
| 2026-04-26 13:32 | 53.32771 | -1.84015 | 46441 ft | 448 kts | 337° |
| 2026-04-26 13:32 | 53.35688 | -1.85842 | 46698 ft | 448 kts | 337° |
| 2026-04-26 13:32 | 53.38607 | -1.87674 | 46944 ft | 448 kts | 337° |
| 2026-04-26 13:32 | 53.41522 | -1.89505 | 47180 ft | 445 kts | 337° |
| 2026-04-26 13:33 | 53.44411 | -1.91321 | 47287 ft | 445 kts | 337° |
| 2026-04-26 13:33 | 53.50239 | -1.95000 | 47292 ft | 456 kts | 337° |
| 2026-04-26 13:34 | 53.56239 | -1.98792 | 47303 ft | 466 kts | 337° |
| 2026-04-26 13:34 | 53.62368 | -2.02678 | 47303 ft | 475 kts | 337° |
| 2026-04-26 13:35 | 53.68611 | -2.06649 | 47302 ft | 484 kts | 337° |
| 2026-04-26 13:35 | 53.74967 | -2.10729 | 47283 ft | 493 kts | 335° |
| 2026-04-26 13:36 | 53.81374 | -2.15102 | 47283 ft | 501 kts | 336° |
| 2026-04-26 13:36 | 53.87893 | -2.19535 | 47297 ft | 508 kts | 335° |
| 2026-04-26 13:37 | 53.94488 | -2.24074 | 47297 ft | 513 kts | 336° |
| 2026-04-26 13:37 | 54.01109 | -2.28609 | 47293 ft | 512 kts | 336° |
| 2026-04-26 13:38 | 54.07712 | -2.33186 | 47275 ft | 513 kts | 336° |
| 2026-04-26 13:38 | 54.14325 | -2.37766 | 47276 ft | 513 kts | 336° |
| 2026-04-26 13:39 | 54.20930 | -2.42361 | 47281 ft | 513 kts | 336° |
| 2026-04-26 13:39 | 54.27541 | -2.46959 | 47294 ft | 513 kts | 336° |
| 2026-04-26 13:40 | 54.34141 | -2.51577 | 47291 ft | 513 kts | 336° |
| 2026-04-26 13:40 | 54.40746 | -2.56207 | 47285 ft | 513 kts | 336° |
| 2026-04-26 13:41 | 54.47343 | -2.60853 | 47296 ft | 512 kts | 335° |
| 2026-04-26 13:41 | 54.53950 | -2.65521 | 47279 ft | 513 kts | 335° |
| 2026-04-26 13:42 | 54.60556 | -2.70210 | 47282 ft | 514 kts | 335° |
| 2026-04-26 13:42 | 54.67182 | -2.74927 | 47288 ft | 515 kts | 335° |
| 2026-04-26 13:43 | 54.73755 | -2.79623 | 47282 ft | 515 kts | 335° |
| 2026-04-26 13:43 | 54.80365 | -2.84364 | 47271 ft | 514 kts | 335° |
| 2026-04-26 13:44 | 54.86977 | -2.89122 | 47382 ft | 514 kts | 335° |
| 2026-04-26 13:44 | 54.90217 | -2.91457 | 48405 ft | 491 kts | 335° |
| 2026-04-26 13:44 | 54.93314 | -2.93693 | 49204 ft | 476 kts | 335° |
| 2026-04-26 13:45 | 54.99452 | -2.98155 | 49262 ft | 482 kts | 335° |
| 2026-04-26 13:45 | 55.05694 | -3.02686 | 49275 ft | 490 kts | 335° |
| 2026-04-26 13:46 | 55.12022 | -3.07308 | 49290 ft | 496 kts | 335° |
| 2026-04-26 13:46 | 55.18443 | -3.11999 | 49278 ft | 504 kts | 335° |
| 2026-04-26 13:47 | 55.24947 | -3.16781 | 49272 ft | 511 kts | 335° |
| 2026-04-26 13:47 | 55.31524 | -3.21629 | 49280 ft | 515 kts | 335° |
| 2026-04-26 13:48 | 55.38131 | -3.26531 | 49273 ft | 515 kts | 335° |
| 2026-04-26 13:48 | 55.44738 | -3.31398 | 49256 ft | 515 kts | 337° |
| 2026-04-26 13:49 | 55.51743 | -3.34164 | 49259 ft | 522 kts | 353° |
| 2026-04-26 13:49 | 55.59024 | -3.33342 | 49271 ft | 527 kts | 7° |
| 2026-04-26 13:50 | 55.66250 | -3.31157 | 49281 ft | 526 kts | 5° |
| 2026-04-26 13:50 | 55.73522 | -3.29667 | 49267 ft | 526 kts | 5° |
| 2026-04-26 13:51 | 55.80778 | -3.27718 | 49263 ft | 528 kts | 6° |
| 2026-04-26 13:51 | 55.88048 | -3.26037 | 49262 ft | 527 kts | 5° |
| 2026-04-26 13:52 | 55.95316 | -3.24193 | 49275 ft | 527 kts | 6° |
| 2026-04-26 13:52 | 56.01356 | -3.22713 | 49264 ft | 527 kts | 5° |
| 2026-04-26 13:53 | 56.09857 | -3.20608 | 49261 ft | 527 kts | 6° |
| 2026-04-26 13:53 | 56.17124 | -3.18799 | 49262 ft | 527 kts | 5° |
| 2026-04-26 13:54 | 56.24392 | -3.16988 | 49265 ft | 528 kts | 5° |
| 2026-04-26 13:54 | 56.31666 | -3.15162 | 49271 ft | 528 kts | 5° |
| 2026-04-26 13:55 | 56.41364 | -3.14018 | 49255 ft | 522 kts | 352° |
| 2026-04-26 13:56 | 56.53277 | -3.17412 | 49278 ft | 522 kts | 350° |
| 2026-04-26 13:56 | 56.60468 | -3.19205 | 49272 ft | 521 kts | 348° |
| 2026-04-26 13:57 | 56.67622 | -3.21248 | 49269 ft | 522 kts | 349° |
| 2026-04-26 13:57 | 56.74672 | -3.23075 | 49259 ft | 519 kts | 349° |
| 2026-04-26 13:58 | 56.81820 | -3.25077 | 49317 ft | 519 kts | 349° |
| 2026-04-26 13:58 | 56.87809 | -3.26678 | 49306 ft | 519 kts | 349° |
| 2026-04-26 13:59 | 56.94925 | -3.28642 | 49358 ft | 517 kts | 349° |
| 2026-04-26 13:59 | 56.98453 | -3.29614 | 49180 ft | 511 kts | 349° |
| 2026-04-26 13:59 | 57.01964 | -3.30572 | 49216 ft | 512 kts | 349° |
| 2026-04-26 14:00 | 57.12612 | -3.33519 | 49349 ft | 518 kts | 349° |
| 2026-04-26 14:00 | 57.16175 | -3.34503 | 49477 ft | 518 kts | 349° |
| 2026-04-26 14:01 | 57.23301 | -3.36487 | 49685 ft | 518 kts | 349° |
| 2026-04-26 14:01 | 57.30429 | -3.38477 | 49834 ft | 518 kts | 349° |
| 2026-04-26 14:02 | 57.37544 | -3.40468 | 50173 ft | 512 kts | 349° |
| 2026-04-26 14:02 | 57.41014 | -3.41429 | 50775 ft | 498 kts | 349° |
| 2026-04-26 14:02 | 57.44360 | -3.42361 | 50937 ft | 492 kts | 349° |
| 2026-04-26 14:02 | 57.47758 | -3.43412 | 50731 ft | 477 kts | 347° |
| 2026-04-26 14:03 | 57.50961 | -3.44426 | 50967 ft | 472 kts | 349° |
| 2026-04-26 14:03 | 57.57505 | -3.46008 | 50861 ft | 475 kts | 349° |
| 2026-04-26 14:03 | 57.60753 | -3.46989 | 50465 ft | 471 kts | 347° |
| 2026-04-26 14:04 | 57.64034 | -3.48020 | 49187 ft | 492 kts | 348° |
| 2026-04-26 14:04 | 57.70870 | -3.49890 | 49248 ft | 499 kts | 349° |
| 2026-04-26 14:05 | 57.77775 | -3.51917 | 49198 ft | 502 kts | 348° |
| 2026-04-26 14:05 | 57.81201 | -3.52904 | 48385 ft | 498 kts | 349° |
| 2026-04-26 14:05 | 57.84652 | -3.53875 | 47428 ft | 506 kts | 349° |
| 2026-04-26 14:05 | 57.88153 | -3.54882 | 47276 ft | 510 kts | 348° |
| 2026-04-26 14:06 | 57.91682 | -3.55914 | 47262 ft | 515 kts | 348° |
| 2026-04-26 14:06 | 57.98756 | -3.57960 | 46610 ft | 508 kts | 349° |
| 2026-04-26 14:06 | 58.02310 | -3.58995 | 45474 ft | 525 kts | 348° |
| 2026-04-26 14:07 | 58.05905 | -3.60050 | 45244 ft | 518 kts | 348° |
| 2026-04-26 14:07 | 58.13019 | -3.62124 | 45248 ft | 520 kts | 348° |
| 2026-04-26 14:08 | 58.20208 | -3.64239 | 45244 ft | 524 kts | 348° |
| 2026-04-26 14:08 | 58.27403 | -3.66356 | 45240 ft | 523 kts | 348° |
| 2026-04-26 14:09 | 58.34602 | -3.68490 | 45223 ft | 523 kts | 348° |
| 2026-04-26 14:09 | 58.41800 | -3.70628 | 45228 ft | 523 kts | 348° |
| 2026-04-26 14:10 | 58.48958 | -3.72766 | 45235 ft | 524 kts | 348° |
| 2026-04-26 14:10 | 58.56160 | -3.74924 | 45233 ft | 524 kts | 348° |
| 2026-04-26 14:11 | 58.66906 | -3.78159 | 43887 ft | 520 kts | 348° |
| 2026-04-26 14:11 | 58.70495 | -3.79250 | 43345 ft | 513 kts | 348° |
| 2026-04-26 14:11 | 58.73953 | -3.80290 | 42816 ft | 497 kts | 348° |
| 2026-04-26 14:12 | 58.77364 | -3.81326 | 41530 ft | 497 kts | 347° |
| 2026-04-26 14:12 | 58.80792 | -3.82381 | 40197 ft | 502 kts | 347° |
| 2026-04-26 14:12 | 58.84309 | -3.83461 | 39442 ft | 516 kts | 347° |
| 2026-04-26 14:12 | 58.87824 | -3.84521 | 39235 ft | 506 kts | 347° |
| 2026-04-26 14:13 | 58.98140 | -3.88620 | 39240 ft | 512 kts | 336° |
| 2026-04-26 14:14 | 59.04567 | -3.94826 | 39239 ft | 521 kts | 327° |
| 2026-04-26 14:14 | 59.11035 | -4.01267 | 39231 ft | 524 kts | 331° |
| 2026-04-26 14:15 | 59.17557 | -4.07605 | 39231 ft | 523 kts | 328° |
| 2026-04-26 14:15 | 59.83246 | -4.74286 | 39190 ft | 528 kts | 329° |
| 2026-04-26 14:16 | 60.86351 | -5.84881 | 39080 ft | 524 kts | 330° |
| 2026-04-26 14:16 | 61.20350 | -6.30167 | 39228 ft | 522 kts | 316° |
| 2026-04-26 14:16 | 61.63151 | -7.00066 | 33393 ft | 427 kts | 316° |
| 2026-04-26 14:16 | 62.02269 | -7.60290 | 3170 ft | 423 kts | 337° |
| 2026-04-26 14:17 | 62.07879 | -7.66800 | 7 ft | 1 kts | 43° |
| 2026-04-26 14:17 | 62.07890 | -7.66837 | 8 ft | 2 kts | 120° |